CYKZ/YKZ METAR and TAF weather

Enter ICAO airport designator
Station Type Date Time Source
CYKZ METAR 2018/12/10 18:00 UTC NOAA

CYKZ 101800Z 26003KT 220V340 15SM OVC028 01/M06 A3017 RMK SC8 SLP226


Station Type Date Time Source
CYKZ Decoded METAR 2018/12/10 18:00 UTC NOAA

Toronto Buttonville, Canada (CYKZ) 43-52N 079-22W
Dec 10, 2018 - 01:00 PM EST / 2018.12.10 1800 UTC
Wind: from the W (260 degrees) at 3 MPH (3 KT) (direction variable):0
Visibility: 15 mile(s):0
Sky conditions: overcast
Temperature: 33 F (1 C)
Dew Point: 21 F (-6 C)
Relative Humidity: 59%
Pressure (altimeter): 30.17 in. Hg (1021 hPa)
ob: CYKZ 101800Z 26003KT 220V340 15SM OVC028 01/M06 A3017 RMK SC8 SLP226
cycle: 18

Station Type Date Time Source
CYKZ TAF 2018/12/10 18:42 UTC NOAA

TAF CYKZ 101739Z 1018/1106 VRB03KT P6SM OVC030
BECMG 1018/1020 22006KT
RMK NXT FCST BY 110000Z


Example: see airport list